Time;durP1;ratioP1;P1;durP2;ratioP2;P2;SDS_P1;SDS_P2;PMS_P1;PMS_P2;Temp;Humidity;BMP_temperature;BMP_pressure;BME280_temperature;BME280_humidity;BME280_pressure;Samples;Min_cycle;Max_cycle;Signal;HPM_P1;HPM_P2
2024/01/13 00:01:40;;;;;;;53.53;28.65;;;5.20;75.50;;;;;;5043413;28;20037;-62
2024/01/13 00:04:10;;;;;;;45.92;26.50;;;5.20;75.50;;;;;;5041712;28;20091;-63
2024/01/13 00:06:38;;;;;;;46.05;27.58;;;5.20;75.50;;;;;;5035506;28;20045;-63
2024/01/13 00:09:10;;;;;;;45.95;26.88;;;5.20;75.60;;;;;;5036376;28;20039;-66
2024/01/13 00:11:39;;;;;;;48.20;28.25;;;5.20;75.60;;;;;;5043095;28;20049;-63
2024/01/13 00:14:12;;;;;;;41.85;26.63;;;5.20;75.60;;;;;;5039629;28;20428;-64
2024/01/13 00:16:41;;;;;;;48.92;27.35;;;5.20;75.90;;;;;;5003535;28;20049;-64
2024/01/13 00:19:07;;;;;;;47.67;26.42;;;5.20;75.60;;;;;;5020137;28;20100;-64
2024/01/13 00:21:39;;;;;;;54.65;28.15;;;5.20;75.60;;;;;;5038928;28;20525;-63
2024/01/13 00:24:08;;;;;;;48.20;29.13;;;5.20;75.60;;;;;;5041119;28;20053;-64
2024/01/13 00:26:37;;;;;;;49.00;27.10;;;5.20;75.60;;;;;;5040902;28;20452;-63
2024/01/13 00:29:08;;;;;;;56.50;29.85;;;5.20;75.60;;;;;;5027441;28;20118;-64
2024/01/13 00:31:35;;;;;;;55.55;28.73;;;5.20;75.70;;;;;;5041516;28;20107;-63
2024/01/13 00:34:02;;;;;;;50.55;26.98;;;5.20;75.60;;;;;;5041118;28;20106;-63
2024/01/13 00:36:29;;;;;;;52.35;28.42;;;5.20;75.60;;;;;;5030505;28;20041;-63
2024/01/13 00:39:00;;;;;;;50.70;26.48;;;5.20;75.60;;;;;;5041131;28;20491;-63
2024/01/13 00:41:27;;;;;;;49.00;27.90;;;5.20;75.40;;;;;;5038574;28;20048;-65
2024/01/13 00:43:59;;;;;;;50.03;28.85;;;5.20;75.60;;;;;;5042287;28;20060;-64
2024/01/13 00:46:30;;;;;;;51.45;27.70;;;5.20;75.60;;;;;;5032858;28;20045;-64
2024/01/13 00:49:02;;;;;;;52.22;27.85;;;5.20;75.60;;;;;;5030416;28;20041;-64
2024/01/13 00:51:36;;;;;;;49.83;27.40;;;5.20;75.60;;;;;;5040328;28;20068;-63
2024/01/13 00:54:06;;;;;;;50.30;27.10;;;5.20;75.60;;;;;;5044747;28;20087;-63
2024/01/13 00:56:43;;;;;;;46.42;25.58;;;5.20;75.60;;;;;;5040789;28;20048;-63
2024/01/13 00:59:12;;;;;;;;;;;5.20;75.60;;;;;;5029509;28;20037;-63
2024/01/13 01:01:43;;;;;;;40.10;22.65;;;5.20;76.00;;;;;;5042197;28;20011;-63
2024/01/13 01:04:10;;;;;;;46.35;25.85;;;5.20;75.30;;;;;;5041934;28;20033;-64
2024/01/13 01:06:39;;;;;;;46.28;26.52;;;5.20;75.40;;;;;;5040377;28;20054;-64
2024/01/13 01:09:09;;;;;;;45.22;26.15;;;5.20;75.50;;;;;;5031763;28;20038;-63
2024/01/13 01:11:36;;;;;;;47.83;26.40;;;5.20;75.50;;;;;;5038966;28;20049;-63
2024/01/13 01:14:04;;;;;;;48.38;26.60;;;5.20;75.60;;;;;;5044332;28;20569;-63
2024/01/13 01:16:34;;;;;;;45.83;26.63;;;5.20;75.60;;;;;;5030743;28;20087;-63
2024/01/13 01:19:03;;;;;;;48.50;26.45;;;5.20;75.60;;;;;;5032191;28;20688;-63
2024/01/13 01:21:30;;;;;;;48.83;26.73;;;5.20;75.60;;;;;;5038168;28;20488;-63
2024/01/13 01:23:58;;;;;;;48.80;26.52;;;5.20;75.60;;;;;;5044213;28;20090;-63
2024/01/13 01:26:28;;;;;;;44.80;26.13;;;5.20;75.60;;;;;;5033141;28;20046;-65
2024/01/13 01:28:54;;;;;;;45.47;26.63;;;5.20;75.60;;;;;;5032916;28;20045;-63
2024/01/13 01:31:21;;;;;;;48.78;26.20;;;5.30;75.70;;;;;;5040731;28;20072;-63
2024/01/13 01:33:48;;;;;;;49.25;26.85;;;5.20;75.60;;;;;;5036065;28;20540;-64
2024/01/13 01:36:15;;;;;;;46.03;26.88;;;5.20;75.60;;;;;;5039649;28;20048;-63
2024/01/13 01:38:44;;;;;;;46.15;26.35;;;5.20;75.60;;;;;;5041818;28;20132;-63
2024/01/13 01:41:13;;;;;;;48.50;25.42;;;5.20;75.60;;;;;;5040531;28;20041;-63
2024/01/13 01:43:42;;;;;;;47.58;27.00;;;5.30;75.70;;;;;;5033746;28;20503;-65
2024/01/13 01:46:19;;;;;;;46.80;27.23;;;5.30;75.60;;;;;;5041355;28;20546;-63
2024/01/13 01:48:56;;;;;;;45.63;26.23;;;5.30;75.50;;;;;;5030074;28;20116;-64
2024/01/13 01:51:26;;;;;;;49.80;27.33;;;5.30;75.50;;;;;;5032579;28;20052;-64
2024/01/13 01:53:53;;;;;;;43.20;25.38;;;5.30;75.50;;;;;;5014440;28;20431;-63
2024/01/13 01:56:26;;;;;;;49.83;26.63;;;5.30;75.50;;;;;;5035027;28;20076;-63
2024/01/13 01:59:01;;;;;;;50.25;28.95;;;5.30;75.50;;;;;;5030468;28;20067;-63
2024/01/13 02:01:30;;;;;;;50.42;27.20;;;5.30;75.40;;;;;;5036911;28;20073;-65
2024/01/13 02:04:02;;;;;;;45.88;26.48;;;5.30;75.50;;;;;;5042404;28;20048;-65
2024/01/13 02:06:31;;;;;;;51.80;27.50;;;5.30;75.50;;;;;;5039843;28;20056;-63
2024/01/13 02:08:59;;;;;;;44.20;26.05;;;5.30;75.50;;;;;;5031933;28;20136;-63
2024/01/13 02:11:26;;;;;;;43.17;27.23;;;5.30;75.60;;;;;;5021371;28;20045;-63
2024/01/13 02:13:55;;;;;;;43.85;24.35;;;5.30;75.50;;;;;;5031822;28;20451;-65
2024/01/13 02:16:38;;;;;;;;;;;;;;;;;;;;;
2024/01/13 02:19:05;;;;;;;45.15;25.00;;;5.30;75.60;;;;;;5030315;28;20411;-63
2024/01/13 02:21:38;;;;;;;47.80;26.25;;;5.30;76.20;;;;;;5035503;28;20575;-63
2024/01/13 02:24:08;;;;;;;47.60;26.23;;;5.30;75.60;;;;;;5040155;28;20045;-63
2024/01/13 02:26:35;;;;;;;44.45;26.10;;;5.30;75.60;;;;;;5029998;28;20057;-63
2024/01/13 02:29:02;;;;;;;43.28;25.58;;;5.30;75.60;;;;;;5039780;28;20041;-63
2024/01/13 02:31:32;;;;;;;46.75;25.60;;;5.30;75.60;;;;;;5038130;28;20052;-63
2024/01/13 02:34:02;;;;;;;50.67;25.65;;;5.30;75.60;;;;;;5053064;23;20040;-54
2024/01/13 02:36:34;;;;;;;;;;;5.30;75.60;;;;;;5038421;28;20570;-56
2024/01/13 02:39:04;;;;;;;38.38;23.35;;;5.30;75.90;;;;;;5039053;28;20016;-55
2024/01/13 02:41:33;;;;;;;44.03;24.33;;;5.30;75.30;;;;;;5036303;28;20030;-58
2024/01/13 02:44:02;;;;;;;47.25;26.42;;;5.30;75.20;;;;;;5032160;28;20135;-56
2024/01/13 02:46:29;;;;;;;35.55;23.63;;;5.30;75.40;;;;;;5030731;28;20034;-58
2024/01/13 02:49:00;;;;;;;38.85;23.35;;;5.30;75.40;;;;;;5025475;28;20044;-58
2024/01/13 02:51:30;;;;;;;46.78;26.17;;;5.30;75.50;;;;;;5030737;28;20403;-59
2024/01/13 02:53:56;;;;;;;46.10;25.70;;;5.30;75.50;;;;;;5030406;28;20419;-57
2024/01/13 02:56:25;;;;;;;39.33;24.88;;;5.30;75.60;;;;;;5025193;28;20088;-57
2024/01/13 02:58:52;;;;;;;39.63;24.83;;;5.30;75.60;;;;;;5027111;28;20045;-58
2024/01/13 03:01:19;;;;;;;39.10;23.58;;;5.30;75.60;;;;;;5030539;28;20044;-57
2024/01/13 03:03:49;;;;;;;39.75;24.20;;;5.30;75.70;;;;;;5030586;28;20116;-57
2024/01/13 03:06:24;;;;;;;41.75;24.80;;;5.30;75.70;;;;;;5027833;28;20055;-56
2024/01/13 03:08:53;;;;;;;39.60;23.38;;;5.30;75.70;;;;;;5027502;28;20049;-57
2024/01/13 03:11:20;;;;;;;42.60;24.67;;;5.30;75.70;;;;;;5030645;28;20096;-58
2024/01/13 03:13:55;;;;;;;32.03;21.52;;;5.30;75.60;;;;;;5012850;28;20056;-58
2024/01/13 03:16:23;;;;;;;35.58;21.92;;;5.40;75.70;;;;;;5027282;28;20044;-58
2024/01/13 03:18:51;;;;;;;33.58;22.25;;;5.40;75.60;;;;;;5025537;28;20107;-57
2024/01/13 03:21:21;;;;;;;33.22;20.73;;;5.40;75.60;;;;;;5030321;28;20052;-53
2024/01/13 03:23:51;;;;;;;34.78;20.35;;;5.40;75.60;;;;;;5029622;28;20056;-57
2024/01/13 03:26:17;;;;;;;30.33;19.20;;;5.40;75.50;;;;;;5029735;28;20121;-58
2024/01/13 03:28:44;;;;;;;28.40;19.52;;;5.40;75.50;;;;;;5027036;28;20504;-58
2024/01/13 03:31:13;;;;;;;30.75;19.05;;;5.40;75.50;;;;;;5029565;28;20041;-58
2024/01/13 03:33:44;;;;;;;33.60;18.80;;;5.40;75.50;;;;;;5029921;28;20064;-58
2024/01/13 03:36:13;;;;;;;27.73;17.10;;;5.40;75.50;;;;;;5030182;28;20045;-57
2024/01/13 03:38:43;;;;;;;32.42;18.58;;;5.40;75.50;;;;;;5027396;28;20427;-57
2024/01/13 03:41:15;;;;;;;29.98;16.85;;;5.40;76.10;;;;;;5028623;28;20118;-59
2024/01/13 03:43:46;;;;;;;27.55;17.35;;;5.40;75.40;;;;;;5029785;28;20418;-57
2024/01/13 03:46:13;;;;;;;24.90;16.70;;;5.50;75.40;;;;;;5028325;28;20140;-59
2024/01/13 03:48:40;;;;;;;29.77;17.33;;;5.40;75.40;;;;;;5019274;28;20073;-56
2024/01/13 03:51:13;;;;;;;;;;;5.50;75.40;;;;;;5030204;28;20049;-57
2024/01/13 03:53:40;;;;;;;23.85;14.65;;;5.50;75.70;;;;;;5029174;28;19931;-58
2024/01/13 03:56:10;;;;;;;27.13;16.50;;;5.50;75.10;;;;;;5027249;28;20045;-57
2024/01/13 03:58:39;;;;;;;27.80;18.30;;;5.50;75.10;;;;;;5029454;28;20045;-57
2024/01/13 04:01:06;;;;;;;27.60;17.55;;;5.50;75.10;;;;;;5029314;28;20049;-58
2024/01/13 04:03:33;;;;;;;29.08;19.27;;;5.50;75.10;;;;;;5029886;28;20033;-58
2024/01/13 04:06:06;;;;;;;32.28;18.63;;;5.50;75.20;;;;;;5024802;28;20049;-56
2024/01/13 04:08:40;;;;;;;27.35;18.08;;;5.50;75.20;;;;;;5018092;28;20087;-56
2024/01/13 04:11:10;;;;;;;31.65;19.08;;;5.50;75.20;;;;;;5029575;28;20504;-56
2024/01/13 04:13:45;;;;;;;31.95;18.48;;;5.50;75.10;;;;;;5027198;28;20049;-57
2024/01/13 04:16:12;;;;;;;32.33;20.23;;;5.50;75.10;;;;;;5027154;28;20049;-57
2024/01/13 04:18:38;;;;;;;28.73;19.17;;;5.50;75.10;;;;;;5026377;28;20038;-56
2024/01/13 04:21:11;;;;;;;31.70;19.27;;;5.50;75.00;;;;;;5027050;28;20064;-55
2024/01/13 04:23:51;;;;;;;31.85;19.23;;;5.50;75.10;;;;;;5029396;28;20042;-58
2024/01/13 04:26:20;;;;;;;32.40;19.67;;;5.50;75.00;;;;;;5026935;28;20114;-57
2024/01/13 04:28:50;;;;;;;30.00;20.15;;;5.50;75.00;;;;;;5028333;28;20045;-58
2024/01/13 04:31:22;;;;;;;30.27;19.17;;;5.50;74.90;;;;;;5027722;28;20052;-56
2024/01/13 04:33:57;;;;;;;28.75;19.20;;;5.50;74.90;;;;;;5029023;28;20551;-57
2024/01/13 04:36:28;;;;;;;31.23;19.02;;;5.50;74.90;;;;;;5027725;28;20048;-55
2024/01/13 04:38:56;;;;;;;32.83;20.02;;;5.50;74.90;;;;;;5010588;28;20539;-56
2024/01/13 04:41:23;;;;;;;30.67;19.05;;;5.50;75.60;;;;;;5021627;28;20045;-56
2024/01/13 04:43:51;;;;;;;32.80;19.98;;;5.50;74.90;;;;;;5028902;28;20037;-58
2024/01/13 04:46:18;;;;;;;31.75;19.85;;;5.50;74.90;;;;;;5026924;28;20103;-55
2024/01/13 04:48:50;;;;;;;30.80;19.55;;;5.50;74.90;;;;;;5026291;28;20100;-57
2024/01/13 04:51:19;;;;;;;31.23;20.08;;;5.50;74.90;;;;;;5028342;28;20049;-57
2024/01/13 04:53:46;;;;;;;28.17;18.88;;;5.50;74.90;;;;;;5028659;28;20049;-58
2024/01/13 04:56:16;;;;;;;34.83;20.15;;;5.50;74.90;;;;;;5027045;28;20124;-59
2024/01/13 04:58:43;;;;;;;29.95;19.83;;;5.50;74.90;;;;;;5021910;28;20047;-57
2024/01/13 05:01:15;;;;;;;31.73;19.50;;;5.50;74.90;;;;;;5027282;28;20515;-55
2024/01/13 05:03:44;;;;;;;30.00;19.00;;;5.50;74.90;;;;;;5029195;28;20059;-56
2024/01/13 05:06:15;;;;;;;31.55;19.48;;;5.50;74.90;;;;;;5024428;28;20042;-57
2024/01/13 05:08:42;;;;;;;34.00;21.08;;;5.50;74.90;;;;;;5006458;28;20060;-60
2024/01/13 05:11:19;;;;;;;31.80;20.85;;;5.50;74.90;;;;;;5026271;28;20782;-56
2024/01/13 05:13:51;;;;;;;29.92;20.23;;;5.60;75.00;;;;;;5026342;28;20076;-58
2024/01/13 05:16:25;;;;;;;30.00;19.90;;;5.50;74.90;;;;;;5024193;28;20152;-58
2024/01/13 05:19:01;;;;;;;30.35;20.48;;;5.50;74.90;;;;;;5001375;28;20579;-58
2024/01/13 05:21:37;;;;;;;33.03;21.42;;;5.50;74.90;;;;;;5008995;28;20034;-57
2024/01/13 05:24:06;;;;;;;31.63;19.00;;;5.50;74.90;;;;;;5024805;28;20161;-56
2024/01/13 05:26:35;;;;;;;31.67;19.52;;;5.50;74.90;;;;;;5023487;28;20085;-57
2024/01/13 05:29:02;;;;;;;31.10;20.23;;;5.60;75.00;;;;;;5025028;28;20049;-56
2024/01/13 05:31:38;;;;;;;26.88;19.63;;;5.50;74.90;;;;;;5027023;28;20056;-58
2024/01/13 05:34:07;;;;;;;28.83;20.00;;;5.60;74.90;;;;;;5029928;28;20045;-57
2024/01/13 05:36:38;;;;;;;29.10;19.17;;;5.60;74.90;;;;;;5027579;28;20067;-56
2024/01/13 05:39:08;;;;;;;33.13;20.73;;;5.60;74.90;;;;;;5012053;28;20049;-59
2024/01/13 05:41:36;;;;;;;32.25;20.52;;;5.60;74.90;;;;;;5028055;28;20052;-57
2024/01/13 05:44:03;;;;;;;35.92;19.95;;;5.60;74.90;;;;;;5025598;28;20048;-58
2024/01/13 05:46:31;;;;;;;32.38;20.35;;;5.60;74.90;;;;;;5029603;28;20042;-58
2024/01/13 05:49:01;;;;;;;29.85;19.48;;;5.60;74.90;;;;;;5026787;28;20128;-59
2024/01/13 05:51:33;;;;;;;27.40;18.60;;;5.60;75.00;;;;;;5029583;28;20510;-58
2024/01/13 05:54:00;;;;;;;28.90;20.23;;;5.60;74.90;;;;;;5029280;28;20053;-55
2024/01/13 05:56:31;;;;;;;30.90;19.73;;;5.60;75.00;;;;;;5027141;28;20049;-58
2024/01/13 05:59:03;;;;;;;28.60;19.63;;;5.60;74.90;;;;;;5026165;28;20299;-57
2024/01/13 06:01:32;;;;;;;29.73;19.23;;;5.60;74.90;;;;;;5029347;28;20040;-58
2024/01/13 06:03:59;;;;;;;24.20;18.23;;;5.60;74.90;;;;;;5026863;28;20112;-58
2024/01/13 06:06:28;;;;;;;30.60;19.65;;;5.60;74.80;;;;;;5021893;28;20052;-59
2024/01/13 06:08:56;;;;;;;29.67;19.73;;;5.60;74.80;;;;;;5028868;28;20049;-58
2024/01/13 06:11:22;;;;;;;30.90;19.48;;;5.60;74.80;;;;;;5029481;28;20042;-58
2024/01/13 06:13:49;;;;;;;26.10;18.88;;;5.60;74.80;;;;;;5026263;28;20069;-58
2024/01/13 06:16:16;;;;;;;26.42;19.70;;;5.60;74.90;;;;;;5027978;28;20128;-56
2024/01/13 06:18:42;;;;;;;29.52;19.65;;;5.60;74.90;;;;;;5028050;28;20160;-59
2024/01/13 06:21:09;;;;;;;28.02;19.20;;;5.60;74.90;;;;;;5030384;28;20045;-56
2024/01/13 06:23:36;;;;;;;27.48;19.33;;;5.60;74.90;;;;;;5031995;28;20639;-55
2024/01/13 06:26:05;;;;;;;29.42;18.55;;;5.60;74.90;;;;;;5029832;28;20559;-56
2024/01/13 06:28:35;;;;;;;27.83;19.98;;;5.60;74.90;;;;;;5026704;28;20049;-57
2024/01/13 06:31:01;;;;;;;28.25;18.77;;;5.60;74.90;;;;;;5029280;28;20046;-56
2024/01/13 06:33:30;;;;;;;31.40;20.08;;;5.60;74.90;;;;;;5031634;28;20049;-57
2024/01/13 06:36:00;;;;;;;29.45;19.65;;;5.60;74.90;;;;;;5027108;28;20124;-59
2024/01/13 06:38:29;;;;;;;28.83;18.20;;;5.60;75.00;;;;;;5031232;28;20038;-58
2024/01/13 06:40:56;;;;;;;28.55;20.23;;;5.60;75.00;;;;;;5030385;28;20103;-59
2024/01/13 06:43:22;;;;;;;24.88;18.98;;;5.60;75.00;;;;;;5021945;28;20465;-55
2024/01/13 06:45:49;;;;;;;27.27;19.77;;;5.60;74.90;;;;;;5025215;28;20671;-56
2024/01/13 06:48:16;;;;;;;29.05;20.23;;;5.60;74.90;;;;;;5028301;28;20048;-60
2024/01/13 06:50:43;;;;;;;30.13;19.98;;;5.60;74.90;;;;;;5027993;28;20411;-57
2024/01/13 06:53:20;;;;;;;27.48;18.45;;;5.60;74.90;;;;;;5031640;28;20041;-57
2024/01/13 06:55:47;;;;;;;28.38;19.95;;;5.60;74.90;;;;;;5031163;28;20077;-58
2024/01/13 06:58:16;;;;;;;29.80;19.38;;;5.60;74.90;;;;;;5023511;28;20038;-58
2024/01/13 07:00:43;;;;;;;28.48;21.08;;;5.70;74.90;;;;;;5030878;28;20072;-58
2024/01/13 07:03:13;;;;;;;27.02;19.17;;;5.60;74.80;;;;;;5031311;28;20057;-59
2024/01/13 07:05:42;;;;;;;29.88;19.25;;;5.70;74.80;;;;;;5027663;28;20092;-57
2024/01/13 07:08:09;;;;;;;27.05;19.67;;;5.70;74.80;;;;;;5020419;28;20037;-58
2024/01/13 07:10:36;;;;;;;28.80;20.25;;;5.60;74.70;;;;;;5027761;28;20556;-58
2024/01/13 07:13:07;;;;;;;25.88;19.25;;;5.60;74.70;;;;;;5028166;28;20072;-59
2024/01/13 07:15:33;;;;;;;27.92;19.00;;;5.70;74.70;;;;;;5026846;28;20057;-59
2024/01/13 07:18:01;;;;;;;30.58;18.35;;;5.60;74.60;;;;;;5023147;28;20049;-60
2024/01/13 07:20:27;;;;;;;29.90;19.27;;;5.60;74.60;;;;;;5025058;28;20119;-56
2024/01/13 07:22:54;;;;;;;24.27;17.40;;;5.60;74.60;;;;;;5028443;28;20047;-59
2024/01/13 07:25:24;;;;;;;26.60;18.38;;;5.60;74.70;;;;;;5028580;28;20447;-59
2024/01/13 07:27:55;;;;;;;21.80;16.35;;;5.60;74.80;;;;;;5022256;28;20435;-58
2024/01/13 07:30:21;;;;;;;24.95;17.83;;;5.60;74.80;;;;;;5020146;28;20046;-57
2024/01/13 07:32:54;;;;;;;22.08;17.40;;;5.70;74.90;;;;;;5028666;28;20045;-59
2024/01/13 07:35:21;;;;;;;24.33;16.90;;;5.70;74.80;;;;;;5024466;28;20048;-59
2024/01/13 07:37:50;;;;;;;29.30;18.05;;;5.70;74.90;;;;;;5022573;28;20133;-59
2024/01/13 07:40:18;;;;;;;24.60;17.08;;;5.70;74.90;;;;;;5006603;28;20124;-59
2024/01/13 07:42:45;;;;;;;22.92;16.13;;;5.70;74.90;;;;;;5020351;28;20131;-59
2024/01/13 07:45:12;;;;;;;22.98;17.48;;;5.70;74.90;;;;;;5018449;28;20117;-59
2024/01/13 07:47:39;;;;;;;23.98;17.25;;;5.70;75.00;;;;;;5010215;28;20042;-59
2024/01/13 07:50:07;;;;;;;26.83;18.52;;;5.70;75.00;;;;;;5025263;28;20148;-60
2024/01/13 07:52:34;;;;;;;25.17;17.08;;;5.70;75.00;;;;;;5029983;28;20052;-59
2024/01/13 07:55:01;;;;;;;25.23;16.92;;;5.70;75.00;;;;;;5029577;28;20521;-59
2024/01/13 07:57:29;;;;;;;25.73;17.48;;;5.70;75.00;;;;;;5027183;28;20038;-59
2024/01/13 07:59:56;;;;;;;24.48;16.98;;;5.70;75.10;;;;;;5029360;28;20049;-59
2024/01/13 08:02:23;;;;;;;22.83;16.35;;;5.70;75.10;;;;;;5028354;28;20047;-59
2024/01/13 08:04:49;;;;;;;21.70;15.98;;;5.70;75.10;;;;;;5027359;28;20523;-59
2024/01/13 08:07:16;;;;;;;22.98;18.30;;;5.70;75.10;;;;;;5029266;28;20033;-59
2024/01/13 08:09:43;;;;;;;23.05;16.00;;;5.70;75.10;;;;;;5029448;28;20053;-58
2024/01/13 08:12:10;;;;;;;20.33;14.63;;;5.70;75.20;;;;;;5025263;28;20514;-60
2024/01/13 08:14:37;;;;;;;21.02;14.77;;;5.70;75.10;;;;;;5029941;28;20432;-59
2024/01/13 13:05:17;;;;;;;27.10;14.98;;;6.30;74.10;;;;;;5016113;28;20048;-59
2024/01/13 13:07:52;;;;;;;24.20;16.02;;;6.30;73.90;;;;;;5032205;28;20103;-58
2024/01/13 13:10:19;;;;;;;27.77;17.65;;;6.30;74.00;;;;;;5032090;28;20108;-59
2024/01/13 13:12:47;;;;;;;25.83;17.48;;;6.30;74.00;;;;;;5030145;28;20749;-59
2024/01/13 13:15:14;;;;;;;25.83;16.58;;;6.30;74.00;;;;;;5027064;23;20434;-63
2024/01/13 13:17:41;;;;;;;26.10;16.98;;;6.30;74.00;;;;;;5032906;28;20037;-62
2024/01/13 13:20:10;;;;;;;25.77;17.13;;;6.30;73.90;;;;;;5032357;28;20130;-65
2024/01/13 13:22:37;;;;;;;24.30;17.15;;;6.30;73.90;;;;;;5030794;28;20053;-63
2024/01/13 13:25:07;;;;;;;25.67;18.08;;;6.30;73.90;;;;;;5020364;28;20042;-63
2024/01/13 13:27:43;;;;;;;31.05;18.90;;;6.40;73.80;;;;;;5031179;28;20152;-65
2024/01/13 13:30:12;;;;;;;24.45;16.88;;;6.30;73.70;;;;;;5030707;28;20124;-65
2024/01/13 13:32:39;;;;;;;26.83;16.77;;;6.30;73.70;;;;;;5027932;28;20393;-64
2024/01/13 13:35:06;;;;;;;24.30;17.48;;;6.30;73.60;;;;;;5030248;28;20125;-64
2024/01/13 13:37:42;;;;;;;24.63;17.02;;;6.30;73.60;;;;;;5013100;28;20119;-62
2024/01/13 13:40:09;;;;;;;26.05;16.50;;;6.40;73.60;;;;;;5029398;28;20033;-63
2024/01/13 13:42:37;;;;;;;22.63;15.95;;;6.40;73.60;;;;;;5030837;28;20055;-63
2024/01/13 13:45:04;;;;;;;22.05;16.33;;;6.30;73.60;;;;;;5032218;28;20025;-64
2024/01/13 13:47:40;;;;;;;27.33;17.67;;;6.30;73.60;;;;;;5032228;28;20543;-63
2024/01/13 13:50:08;;;;;;;27.75;18.13;;;6.40;73.50;;;;;;5031651;28;20543;-64
2024/01/13 13:52:35;;;;;;;26.02;17.35;;;6.40;73.50;;;;;;5028838;28;20448;-63
2024/01/13 13:55:04;;;;;;;24.27;17.10;;;6.40;73.40;;;;;;5031975;28;20049;-65
2024/01/13 13:57:38;;;;;;;27.67;18.15;;;6.40;73.40;;;;;;5032240;28;20045;-63
2024/01/13 15:15:59;;;;;;;31.10;21.17;;;5.90;73.80;;;;;;5023749;28;20064;-64
2024/01/13 15:18:26;;;;;;;38.42;24.95;;;5.90;73.70;;;;;;5012341;28;20133;-63
2024/01/13 15:20:56;;;;;;;36.65;22.67;;;5.80;73.80;;;;;;5030240;28;20037;-62
2024/01/13 15:23:22;;;;;;;36.90;23.42;;;5.80;74.00;;;;;;5029906;28;20033;-65
2024/01/13 15:25:49;;;;;;;59.67;36.72;;;5.80;74.00;;;;;;5027395;28;20064;-64
2024/01/13 15:28:16;;;;;;;46.08;30.55;;;5.90;74.10;;;;;;5028660;28;20034;-63
2024/01/13 15:30:43;;;;;;;43.22;28.38;;;5.80;74.20;;;;;;5030175;28;20073;-64
2024/01/13 15:33:10;;;;;;;43.00;27.55;;;5.80;74.20;;;;;;5027614;28;20038;-63
2024/01/13 15:35:38;;;;;;;43.80;31.63;;;5.80;74.30;;;;;;5025523;28;20115;-64
2024/01/13 15:38:09;;;;;;;37.38;25.00;;;5.90;74.30;;;;;;5026024;28;20478;-63
2024/01/13 15:40:36;;;;;;;37.47;22.88;;;5.80;74.30;;;;;;5029837;28;20045;-64
2024/01/13 15:43:03;;;;;;;37.17;23.88;;;5.80;74.30;;;;;;5027362;28;20100;-64
2024/01/13 15:45:30;;;;;;;33.03;22.98;;;5.80;74.30;;;;;;5027750;28;20037;-63
2024/01/13 15:47:56;;;;;;;38.70;24.02;;;5.80;74.30;;;;;;5023257;28;20053;-65
2024/01/13 15:50:24;;;;;;;33.65;22.10;;;5.80;74.30;;;;;;5028945;28;20051;-63
2024/01/13 15:52:52;;;;;;;36.25;23.05;;;5.80;74.30;;;;;;5025683;28;20077;-64
2024/01/13 15:55:20;;;;;;;41.63;24.83;;;5.80;74.30;;;;;;5023737;28;20049;-63
2024/01/13 15:57:47;;;;;;;40.97;24.83;;;5.80;74.30;;;;;;5029077;28;20049;-64
2024/01/13 16:00:16;;;;;;;36.58;23.98;;;5.80;74.30;;;;;;5028527;28;20405;-67
2024/01/13 16:02:44;;;;;;;40.67;24.48;;;5.80;74.30;;;;;;5026953;28;20194;-63
2024/01/13 16:05:11;;;;;;;37.55;23.15;;;5.80;74.30;;;;;;5027422;28;20041;-63
2024/01/13 16:07:44;;;;;;;38.30;23.95;;;5.80;74.30;;;;;;5025499;28;20116;-63
2024/01/13 16:10:11;;;;;;;33.22;23.13;;;5.80;74.30;;;;;;5022531;28;20060;-64
2024/01/13 16:12:39;;;;;;;33.63;22.58;;;5.80;74.40;;;;;;5029922;28;20137;-64
2024/01/13 16:15:07;;;;;;;35.20;22.48;;;5.70;74.40;;;;;;5029628;28;20049;-63
2024/01/13 16:17:52;;;;;;;38.92;23.13;;;5.80;74.40;;;;;;5029009;28;20064;-65
2024/01/13 16:20:22;;;;;;;34.75;22.42;;;5.80;74.40;;;;;;5023720;28;20038;-65
2024/01/13 16:22:51;;;;;;;33.42;22.20;;;5.70;74.30;;;;;;5026635;28;20455;-63
2024/01/13 16:25:21;;;;;;;34.75;22.35;;;5.70;74.30;;;;;;5029801;28;20037;-63
2024/01/13 16:27:49;;;;;;;36.63;22.85;;;5.70;74.30;;;;;;5029707;28;20041;-65
2024/01/13 16:30:16;;;;;;;36.92;24.52;;;5.70;74.30;;;;;;5025276;28;20041;-64
2024/01/13 16:32:43;;;;;;;38.40;25.38;;;5.70;74.30;;;;;;5030022;28;20107;-63
2024/01/13 16:35:14;;;;;;;34.33;21.40;;;5.70;74.40;;;;;;5026325;28;20044;-63
2024/01/13 16:37:44;;;;;;;40.63;24.63;;;5.70;74.50;;;;;;5026303;28;20076;-63
2024/01/13 16:40:11;;;;;;;35.58;23.00;;;5.70;74.50;;;;;;5018871;28;20049;-65
2024/01/13 16:42:51;;;;;;;35.63;22.98;;;5.70;74.60;;;;;;5026076;28;20851;-63
2024/01/13 16:45:19;;;;;;;36.20;23.08;;;5.70;74.60;;;;;;5026014;28;20393;-63
2024/01/13 16:47:49;;;;;;;40.25;23.98;;;5.70;74.60;;;;;;5028397;28;20057;-63
2024/01/13 16:50:17;;;;;;;35.38;22.90;;;5.60;74.60;;;;;;5024716;28;20713;-64
2024/01/13 16:52:47;;;;;;;38.42;22.52;;;5.70;74.60;;;;;;5025973;28;20049;-63
2024/01/13 16:55:21;;;;;;;39.83;24.50;;;5.60;74.50;;;;;;5026290;28;20505;-63
2024/01/13 16:57:48;;;;;;;35.53;23.90;;;5.70;74.60;;;;;;5022965;28;20598;-63
2024/01/13 17:00:19;;;;;;;35.45;23.80;;;5.60;74.50;;;;;;5026974;28;20420;-64
2024/01/13 17:02:49;;;;;;;40.65;25.27;;;5.60;74.50;;;;;;5028896;28;20459;-63
2024/01/13 17:05:18;;;;;;;37.38;23.60;;;5.60;74.60;;;;;;5024059;28;20049;-62
2024/01/13 17:07:46;;;;;;;37.00;24.05;;;5.50;74.70;;;;;;5024719;28;20041;-63
2024/01/13 17:10:16;;;;;;;38.67;24.98;;;5.50;74.80;;;;;;5025000;28;20752;-64
2024/01/13 17:12:43;;;;;;;44.53;25.65;;;5.50;74.80;;;;;;5028742;28;20050;-63
2024/01/13 17:15:15;;;;;;;40.88;24.90;;;5.50;74.80;;;;;;5005310;28;20622;-64
2024/01/13 17:17:44;;;;;;;42.58;25.27;;;5.50;74.80;;;;;;5017757;28;20103;-63
2024/01/13 17:20:12;;;;;;;41.20;26.48;;;5.50;74.90;;;;;;5024635;28;20056;-63
2024/01/13 17:22:44;;;;;;;46.50;27.08;;;5.40;74.90;;;;;;5026192;28;20129;-64
2024/01/13 17:25:14;;;;;;;42.55;25.33;;;5.40;75.00;;;;;;5022657;28;20832;-64
2024/01/13 17:27:40;;;;;;;43.60;24.50;;;5.40;75.00;;;;;;5026384;28;20073;-63
2024/01/13 17:30:08;;;;;;;42.70;27.08;;;5.40;75.10;;;;;;5027797;28;20290;-65
2024/01/13 17:32:46;;;;;;;42.00;24.77;;;5.40;75.10;;;;;;5027563;28;20145;-65
2024/01/13 17:35:15;;;;;;;41.92;25.73;;;5.40;75.30;;;;;;5030048;28;20412;-63
2024/01/13 17:37:43;;;;;;;42.85;26.58;;;5.30;75.10;;;;;;5026102;28;20049;-63
2024/01/13 17:40:11;;;;;;;47.55;26.27;;;5.30;75.10;;;;;;5021193;28;20045;-63
2024/01/13 17:42:45;;;;;;;42.20;26.45;;;5.30;75.20;;;;;;5030591;28;20095;-63
2024/01/13 17:45:15;;;;;;;46.13;27.38;;;5.30;75.20;;;;;;5032015;28;20045;-63
2024/01/13 17:47:46;;;;;;;47.65;26.42;;;5.20;75.40;;;;;;5008498;28;20544;-63
2024/01/13 17:50:14;;;;;;;41.67;24.95;;;5.20;75.30;;;;;;5031047;28;20042;-64
2024/01/13 17:52:43;;;;;;;49.33;27.65;;;5.20;75.40;;;;;;5031431;28;20049;-64
2024/01/13 17:55:14;;;;;;;45.97;28.17;;;5.20;75.50;;;;;;5026214;28;20088;-64
2024/01/13 17:57:41;;;;;;;46.13;27.52;;;5.20;75.60;;;;;;5018514;28;20060;-61
2024/01/13 18:00:09;;;;;;;44.95;27.17;;;5.10;75.60;;;;;;5024128;28;20121;-61
2024/01/13 18:02:37;;;;;;;46.63;26.45;;;5.10;75.70;;;;;;5025895;28;20067;-61
2024/01/13 18:05:07;;;;;;;43.50;27.17;;;5.10;75.70;;;;;;5024110;28;20073;-60
2024/01/13 18:07:36;;;;;;;46.67;25.60;;;5.10;75.70;;;;;;5026375;28;20387;-61
2024/01/13 18:10:13;;;;;;;50.35;26.83;;;5.10;75.80;;;;;;5021577;28;20099;-61
2024/01/13 18:12:39;;;;;;;58.42;35.42;;;5.10;75.90;;;;;;5007184;28;20084;-61
2024/01/13 18:15:07;;;;;;;58.60;35.70;;;5.10;75.90;;;;;;5027338;28;20092;-61
2024/01/13 18:17:38;;;;;;;56.13;33.10;;;5.10;75.80;;;;;;5024749;28;20092;-61
2024/01/13 18:20:08;;;;;;;50.42;31.25;;;5.00;75.70;;;;;;5027832;28;20081;-61
2024/01/13 18:22:35;;;;;;;46.53;27.15;;;5.00;75.80;;;;;;5028712;28;20056;-61
2024/01/13 18:25:02;;;;;;;51.75;30.75;;;5.00;75.90;;;;;;5024128;28;20041;-61
2024/01/13 18:27:29;;;;;;;56.50;29.75;;;5.00;75.90;;;;;;5027055;28;20515;-61
2024/01/13 18:30:03;;;;;;;48.00;28.88;;;5.00;76.00;;;;;;5025643;28;20069;-61
2024/01/13 18:32:52;;;;;;;47.08;28.33;;;5.00;76.00;;;;;;5017345;28;20045;-61
2024/01/13 18:35:47;;;;;;;50.67;27.95;;;5.00;75.90;;;;;;5027508;28;20076;-61
2024/01/13 18:38:45;;;;;;;50.17;28.13;;;5.00;75.80;;;;;;5024459;28;20117;-61
2024/01/13 18:41:21;;;;;;;50.45;30.27;;;4.90;75.80;;;;;;5027889;28;20412;-60
2024/01/13 18:43:54;;;;;;;53.17;30.67;;;4.90;75.90;;;;;;5028647;28;20448;-61
2024/01/13 18:46:28;;;;;;;54.55;29.73;;;4.90;75.90;;;;;;5023124;28;20045;-61
2024/01/13 18:49:04;;;;;;;50.60;27.63;;;4.90;76.00;;;;;;5021829;28;20041;-61
2024/01/13 18:51:55;;;;;;;50.95;29.73;;;4.90;75.90;;;;;;5019599;28;20049;-61
2024/01/13 18:54:26;;;;;;;56.53;30.85;;;4.90;75.90;;;;;;5017145;28;20469;-61